KLAF/LAF METAR and TAF weather

Enter ICAO airport designator
Station Type Date Time Source
KLAF METAR 2024/05/28 22:54 UTC NOAA

KLAF 282254Z 27010G16KT 10SM FEW060 22/11 A2994 RMK AO2 SLP135 T02170111


Station Type Date Time Source
KLAF Decoded METAR 2024/05/28 22:54 UTC NOAA

LAFAYETTE PURDUE UNIV AIRPORT , IN, United States (KLAF) 40-25N 86-57W 182M
May 28, 2024 - 06:54 PM EDT / 2024.05.28 2254 UTC
Wind: from the W (270 degrees) at 12 MPH (10 KT) gusting to 18 MPH (16 KT):0
Visibility: 10 mile(s):0
Sky conditions: mostly clear
Temperature: 71.1 F (21.7 C)
Dew Point: 52.0 F (11.1 C)
Relative Humidity: 50%
Pressure (altimeter): 29.94 in. Hg (1013 hPa)
ob: KLAF 282254Z 27010G16KT 10SM FEW060 22/11 A2994 RMK AO2 SLP135 T02170111
cycle: 23

Station Type Date Time Source
KLAF TAF 2024/05/28 20:04 UTC NOAA